sensor_id;sensor_type;location;lat;lon;timestamp;P1;durP1;ratioP1;P2;durP2;ratioP2
47599;SDS011;33323;52.124;6.018;2024-02-28T00:00:12;61.35;;;19.27;;
47599;SDS011;33323;52.124;6.018;2024-02-28T00:02:39;60.45;;;19.27;;
47599;SDS011;33323;52.124;6.018;2024-02-28T00:05:06;67.40;;;21.02;;
47599;SDS011;33323;52.124;6.018;2024-02-28T00:07:34;59.03;;;19.40;;
47599;SDS011;33323;52.124;6.018;2024-02-28T00:10:01;64.70;;;20.00;;
47599;SDS011;33323;52.124;6.018;2024-02-28T00:12:28;92.20;;;21.98;;
47599;SDS011;33323;52.124;6.018;2024-02-28T00:14:55;53.95;;;18.52;;
47599;SDS011;33323;52.124;6.018;2024-02-28T00:17:22;90.93;;;21.02;;
47599;SDS011;33323;52.124;6.018;2024-02-28T00:19:50;68.30;;;20.20;;
47599;SDS011;33323;52.124;6.018;2024-02-28T00:22:17;92.55;;;21.42;;
47599;SDS011;33323;52.124;6.018;2024-02-28T00:24:44;60.28;;;19.45;;
47599;SDS011;33323;52.124;6.018;2024-02-28T00:27:11;64.45;;;20.67;;
47599;SDS011;33323;52.124;6.018;2024-02-28T00:29:38;86.70;;;21.23;;
47599;SDS011;33323;52.124;6.018;2024-02-28T00:32:05;72.22;;;20.17;;
47599;SDS011;33323;52.124;6.018;2024-02-28T00:34:32;72.30;;;20.83;;
47599;SDS011;33323;52.124;6.018;2024-02-28T00:36:59;114.53;;;22.80;;
47599;SDS011;33323;52.124;6.018;2024-02-28T00:39:26;68.28;;;19.77;;
47599;SDS011;33323;52.124;6.018;2024-02-28T00:41:53;85.25;;;21.02;;
47599;SDS011;33323;52.124;6.018;2024-02-28T00:44:20;118.63;;;22.67;;
47599;SDS011;33323;52.124;6.018;2024-02-28T00:46:47;91.40;;;25.05;;
47599;SDS011;33323;52.124;6.018;2024-02-28T00:49:14;62.70;;;20.17;;
47599;SDS011;33323;52.124;6.018;2024-02-28T00:51:41;68.82;;;21.45;;
47599;SDS011;33323;52.124;6.018;2024-02-28T00:54:08;100.15;;;25.25;;
47599;SDS011;33323;52.124;6.018;2024-02-28T00:56:35;134.55;;;23.90;;
47599;SDS011;33323;52.124;6.018;2024-02-28T00:59:02;126.55;;;23.23;;
47599;SDS011;33323;52.124;6.018;2024-02-28T01:01:29;86.25;;;23.52;;
47599;SDS011;33323;52.124;6.018;2024-02-28T01:03:56;95.03;;;22.23;;
47599;SDS011;33323;52.124;6.018;2024-02-28T01:06:24;84.05;;;22.80;;
47599;SDS011;33323;52.124;6.018;2024-02-28T01:08:51;66.47;;;21.60;;
47599;SDS011;33323;52.124;6.018;2024-02-28T01:11:17;62.22;;;20.25;;
47599;SDS011;33323;52.124;6.018;2024-02-28T01:13:44;64.13;;;22.23;;
47599;SDS011;33323;52.124;6.018;2024-02-28T01:16:11;96.60;;;22.50;;
47599;SDS011;33323;52.124;6.018;2024-02-28T01:18:38;60.10;;;21.33;;
47599;SDS011;33323;52.124;6.018;2024-02-28T01:21:06;50.85;;;21.35;;
47599;SDS011;33323;52.124;6.018;2024-02-28T01:23:33;57.17;;;21.55;;
47599;SDS011;33323;52.124;6.018;2024-02-28T01:26:00;99.60;;;23.08;;
47599;SDS011;33323;52.124;6.018;2024-02-28T01:28:30;62.08;;;22.52;;
47599;SDS011;33323;52.124;6.018;2024-02-28T01:30:57;78.00;;;22.90;;
47599;SDS011;33323;52.124;6.018;2024-02-28T01:33:24;57.42;;;21.52;;
47599;SDS011;33323;52.124;6.018;2024-02-28T01:35:51;53.72;;;20.60;;
47599;SDS011;33323;52.124;6.018;2024-02-28T01:38:20;57.05;;;22.83;;
47599;SDS011;33323;52.124;6.018;2024-02-28T01:40:47;53.72;;;21.13;;
47599;SDS011;33323;52.124;6.018;2024-02-28T01:43:14;52.67;;;20.88;;
47599;SDS011;33323;52.124;6.018;2024-02-28T01:45:41;64.65;;;23.15;;
47599;SDS011;33323;52.124;6.018;2024-02-28T01:48:09;58.97;;;20.75;;
47599;SDS011;33323;52.124;6.018;2024-02-28T01:50:37;51.63;;;21.52;;
47599;SDS011;33323;52.124;6.018;2024-02-28T01:53:06;56.92;;;22.48;;
47599;SDS011;33323;52.124;6.018;2024-02-28T01:55:35;51.38;;;21.58;;
47599;SDS011;33323;52.124;6.018;2024-02-28T01:58:02;58.13;;;21.23;;
47599;SDS011;33323;52.124;6.018;2024-02-28T02:00:33;56.55;;;21.25;;
47599;SDS011;33323;52.124;6.018;2024-02-28T02:03:01;62.38;;;21.70;;
47599;SDS011;33323;52.124;6.018;2024-02-28T02:05:28;63.38;;;23.48;;
47599;SDS011;33323;52.124;6.018;2024-02-28T02:07:58;88.35;;;25.27;;
47599;SDS011;33323;52.124;6.018;2024-02-28T02:10:27;55.25;;;22.02;;
47599;SDS011;33323;52.124;6.018;2024-02-28T02:12:55;55.42;;;22.38;;
47599;SDS011;33323;52.124;6.018;2024-02-28T02:15:22;55.22;;;22.65;;
47599;SDS011;33323;52.124;6.018;2024-02-28T02:17:49;78.22;;;26.38;;
47599;SDS011;33323;52.124;6.018;2024-02-28T02:20:16;68.82;;;23.88;;
47599;SDS011;33323;52.124;6.018;2024-02-28T02:22:47;64.53;;;23.73;;
47599;SDS011;33323;52.124;6.018;2024-02-28T02:25:14;64.90;;;24.42;;
47599;SDS011;33323;52.124;6.018;2024-02-28T02:27:41;60.58;;;22.90;;
47599;SDS011;33323;52.124;6.018;2024-02-28T02:30:08;58.95;;;22.92;;
47599;SDS011;33323;52.124;6.018;2024-02-28T02:32:35;52.38;;;22.15;;
47599;SDS011;33323;52.124;6.018;2024-02-28T02:35:02;55.92;;;22.92;;
47599;SDS011;33323;52.124;6.018;2024-02-28T02:37:30;51.47;;;23.05;;
47599;SDS011;33323;52.124;6.018;2024-02-28T02:39:57;48.47;;;20.23;;
47599;SDS011;33323;52.124;6.018;2024-02-28T02:42:24;54.58;;;22.20;;
47599;SDS011;33323;52.124;6.018;2024-02-28T02:44:51;53.05;;;20.48;;
47599;SDS011;33323;52.124;6.018;2024-02-28T02:47:18;49.55;;;19.77;;
47599;SDS011;33323;52.124;6.018;2024-02-28T02:49:45;55.50;;;22.17;;
47599;SDS011;33323;52.124;6.018;2024-02-28T02:52:12;43.85;;;18.25;;
47599;SDS011;33323;52.124;6.018;2024-02-28T02:54:39;57.28;;;23.27;;
47599;SDS011;33323;52.124;6.018;2024-02-28T02:57:06;54.53;;;22.17;;
47599;SDS011;33323;52.124;6.018;2024-02-28T02:59:33;51.78;;;20.65;;
47599;SDS011;33323;52.124;6.018;2024-02-28T03:02:00;50.22;;;19.20;;
47599;SDS011;33323;52.124;6.018;2024-02-28T03:04:27;45.00;;;18.30;;
47599;SDS011;33323;52.124;6.018;2024-02-28T03:06:54;50.00;;;20.58;;
47599;SDS011;33323;52.124;6.018;2024-02-28T03:09:21;42.65;;;19.30;;
47599;SDS011;33323;52.124;6.018;2024-02-28T03:11:48;43.65;;;19.65;;
47599;SDS011;33323;52.124;6.018;2024-02-28T03:14:15;40.95;;;18.02;;
47599;SDS011;33323;52.124;6.018;2024-02-28T03:16:42;44.17;;;18.55;;
47599;SDS011;33323;52.124;6.018;2024-02-28T03:19:12;38.35;;;17.33;;
47599;SDS011;33323;52.124;6.018;2024-02-28T03:21:39;40.33;;;17.55;;
47599;SDS011;33323;52.124;6.018;2024-02-28T03:24:07;39.88;;;18.42;;
47599;SDS011;33323;52.124;6.018;2024-02-28T03:26:34;36.35;;;17.90;;
47599;SDS011;33323;52.124;6.018;2024-02-28T03:29:01;41.40;;;18.17;;
47599;SDS011;33323;52.124;6.018;2024-02-28T03:31:28;41.28;;;19.52;;
47599;SDS011;33323;52.124;6.018;2024-02-28T03:33:55;40.55;;;18.70;;
47599;SDS011;33323;52.124;6.018;2024-02-28T03:36:22;40.03;;;18.83;;
47599;SDS011;33323;52.124;6.018;2024-02-28T03:38:49;41.83;;;18.00;;
47599;SDS011;33323;52.124;6.018;2024-02-28T03:41:17;41.35;;;21.05;;
47599;SDS011;33323;52.124;6.018;2024-02-28T03:43:44;44.15;;;18.80;;
47599;SDS011;33323;52.124;6.018;2024-02-28T03:46:11;39.53;;;18.55;;
47599;SDS011;33323;52.124;6.018;2024-02-28T03:48:38;38.45;;;16.88;;
47599;SDS011;33323;52.124;6.018;2024-02-28T03:51:05;36.67;;;17.80;;
47599;SDS011;33323;52.124;6.018;2024-02-28T03:53:32;34.80;;;17.23;;
47599;SDS011;33323;52.124;6.018;2024-02-28T03:55:59;33.45;;;17.10;;
47599;SDS011;33323;52.124;6.018;2024-02-28T03:58:27;34.00;;;16.08;;
47599;SDS011;33323;52.124;6.018;2024-02-28T04:00:54;34.95;;;16.50;;
47599;SDS011;33323;52.124;6.018;2024-02-28T04:03:22;32.92;;;15.65;;
47599;SDS011;33323;52.124;6.018;2024-02-28T04:05:49;39.40;;;17.83;;
47599;SDS011;33323;52.124;6.018;2024-02-28T04:08:16;35.53;;;16.67;;
47599;SDS011;33323;52.124;6.018;2024-02-28T04:10:43;37.65;;;16.95;;
47599;SDS011;33323;52.124;6.018;2024-02-28T04:13:10;36.20;;;17.23;;
47599;SDS011;33323;52.124;6.018;2024-02-28T04:15:37;33.28;;;16.63;;
47599;SDS011;33323;52.124;6.018;2024-02-28T04:18:04;39.13;;;16.73;;
47599;SDS011;33323;52.124;6.018;2024-02-28T04:20:32;37.50;;;16.95;;
47599;SDS011;33323;52.124;6.018;2024-02-28T04:23:00;38.67;;;17.17;;
47599;SDS011;33323;52.124;6.018;2024-02-28T04:25:27;41.00;;;17.42;;
47599;SDS011;33323;52.124;6.018;2024-02-28T04:27:54;39.42;;;16.63;;
47599;SDS011;33323;52.124;6.018;2024-02-28T04:30:21;42.97;;;18.30;;
47599;SDS011;33323;52.124;6.018;2024-02-28T04:32:48;41.38;;;17.40;;
47599;SDS011;33323;52.124;6.018;2024-02-28T04:35:16;39.10;;;17.42;;
47599;SDS011;33323;52.124;6.018;2024-02-28T04:37:45;37.10;;;17.23;;
47599;SDS011;33323;52.124;6.018;2024-02-28T04:40:12;39.35;;;17.80;;
47599;SDS011;33323;52.124;6.018;2024-02-28T04:42:40;37.25;;;17.92;;
47599;SDS011;33323;52.124;6.018;2024-02-28T04:45:09;42.47;;;20.05;;
47599;SDS011;33323;52.124;6.018;2024-02-28T04:47:37;37.17;;;15.82;;
47599;SDS011;33323;52.124;6.018;2024-02-28T04:50:10;35.45;;;17.52;;
47599;SDS011;33323;52.124;6.018;2024-02-28T04:52:38;30.90;;;15.60;;
47599;SDS011;33323;52.124;6.018;2024-02-28T04:55:05;32.05;;;17.33;;
47599;SDS011;33323;52.124;6.018;2024-02-28T04:57:32;37.85;;;18.00;;
47599;SDS011;33323;52.124;6.018;2024-02-28T04:59:59;34.63;;;16.77;;
47599;SDS011;33323;52.124;6.018;2024-02-28T05:02:26;32.45;;;15.50;;
47599;SDS011;33323;52.124;6.018;2024-02-28T05:04:53;28.92;;;14.45;;
47599;SDS011;33323;52.124;6.018;2024-02-28T05:07:21;33.75;;;16.23;;
47599;SDS011;33323;52.124;6.018;2024-02-28T05:09:48;36.38;;;17.30;;
47599;SDS011;33323;52.124;6.018;2024-02-28T05:12:16;32.53;;;15.18;;
47599;SDS011;33323;52.124;6.018;2024-02-28T05:14:43;33.13;;;16.42;;
47599;SDS011;33323;52.124;6.018;2024-02-28T05:17:10;33.25;;;16.05;;
47599;SDS011;33323;52.124;6.018;2024-02-28T05:19:37;29.75;;;15.23;;
47599;SDS011;33323;52.124;6.018;2024-02-28T05:22:06;33.03;;;16.58;;
47599;SDS011;33323;52.124;6.018;2024-02-28T05:24:33;30.27;;;15.50;;
47599;SDS011;33323;52.124;6.018;2024-02-28T05:27:00;28.10;;;15.23;;
47599;SDS011;33323;52.124;6.018;2024-02-28T05:29:27;32.72;;;16.90;;
47599;SDS011;33323;52.124;6.018;2024-02-28T05:31:54;30.80;;;14.32;;
47599;SDS011;33323;52.124;6.018;2024-02-28T05:34:21;29.38;;;14.82;;
47599;SDS011;33323;52.124;6.018;2024-02-28T05:36:48;30.00;;;15.50;;
47599;SDS011;33323;52.124;6.018;2024-02-28T05:39:17;29.85;;;14.57;;
47599;SDS011;33323;52.124;6.018;2024-02-28T05:41:44;30.70;;;15.25;;
47599;SDS011;33323;52.124;6.018;2024-02-28T05:44:11;26.95;;;15.02;;
47599;SDS011;33323;52.124;6.018;2024-02-28T05:46:38;29.55;;;14.48;;
47599;SDS011;33323;52.124;6.018;2024-02-28T05:49:05;33.00;;;15.68;;
47599;SDS011;33323;52.124;6.018;2024-02-28T05:51:32;32.75;;;15.52;;
47599;SDS011;33323;52.124;6.018;2024-02-28T05:53:59;35.78;;;16.63;;
47599;SDS011;33323;52.124;6.018;2024-02-28T05:56:26;29.88;;;15.73;;
47599;SDS011;33323;52.124;6.018;2024-02-28T05:58:53;33.10;;;15.55;;
47599;SDS011;33323;52.124;6.018;2024-02-28T06:01:20;32.35;;;14.85;;
47599;SDS011;33323;52.124;6.018;2024-02-28T06:03:48;32.08;;;15.68;;
47599;SDS011;33323;52.124;6.018;2024-02-28T06:06:15;35.40;;;15.70;;
47599;SDS011;33323;52.124;6.018;2024-02-28T06:08:42;31.75;;;17.05;;
47599;SDS011;33323;52.124;6.018;2024-02-28T06:11:10;30.77;;;15.65;;
47599;SDS011;33323;52.124;6.018;2024-02-28T06:13:40;34.60;;;15.80;;
47599;SDS011;33323;52.124;6.018;2024-02-28T06:16:07;30.30;;;16.88;;
47599;SDS011;33323;52.124;6.018;2024-02-28T06:18:41;28.40;;;15.57;;
47599;SDS011;33323;52.124;6.018;2024-02-28T06:21:08;27.13;;;14.20;;
47599;SDS011;33323;52.124;6.018;2024-02-28T06:23:35;32.28;;;16.23;;
47599;SDS011;33323;52.124;6.018;2024-02-28T06:26:02;31.75;;;15.73;;
47599;SDS011;33323;52.124;6.018;2024-02-28T06:28:29;33.30;;;16.17;;
47599;SDS011;33323;52.124;6.018;2024-02-28T06:30:58;28.90;;;16.10;;
47599;SDS011;33323;52.124;6.018;2024-02-28T06:33:25;30.85;;;15.68;;
47599;SDS011;33323;52.124;6.018;2024-02-28T06:35:52;30.95;;;15.55;;
47599;SDS011;33323;52.124;6.018;2024-02-28T06:38:19;28.52;;;15.75;;
47599;SDS011;33323;52.124;6.018;2024-02-28T06:40:46;32.70;;;16.33;;
47599;SDS011;33323;52.124;6.018;2024-02-28T06:43:14;33.40;;;16.98;;
47599;SDS011;33323;52.124;6.018;2024-02-28T06:45:42;32.50;;;17.50;;
47599;SDS011;33323;52.124;6.018;2024-02-28T06:48:09;33.92;;;18.92;;
47599;SDS011;33323;52.124;6.018;2024-02-28T06:50:36;32.95;;;17.63;;
47599;SDS011;33323;52.124;6.018;2024-02-28T06:53:03;39.05;;;19.52;;
47599;SDS011;33323;52.124;6.018;2024-02-28T06:55:30;37.47;;;17.92;;
47599;SDS011;33323;52.124;6.018;2024-02-28T06:57:57;36.58;;;20.25;;
47599;SDS011;33323;52.124;6.018;2024-02-28T07:00:25;41.67;;;19.10;;
47599;SDS011;33323;52.124;6.018;2024-02-28T07:02:52;33.03;;;18.85;;
47599;SDS011;33323;52.124;6.018;2024-02-28T07:05:19;34.60;;;19.63;;
47599;SDS011;33323;52.124;6.018;2024-02-28T07:07:47;36.40;;;18.83;;
47599;SDS011;33323;52.124;6.018;2024-02-28T07:10:15;37.53;;;19.17;;
47599;SDS011;33323;52.124;6.018;2024-02-28T07:12:42;35.28;;;19.40;;
47599;SDS011;33323;52.124;6.018;2024-02-28T07:15:10;35.00;;;19.88;;
47599;SDS011;33323;52.124;6.018;2024-02-28T07:17:37;41.40;;;22.60;;
47599;SDS011;33323;52.124;6.018;2024-02-28T07:20:05;37.25;;;20.50;;
47599;SDS011;33323;52.124;6.018;2024-02-28T07:22:33;40.58;;;23.33;;
47599;SDS011;33323;52.124;6.018;2024-02-28T07:25:01;39.38;;;21.02;;
47599;SDS011;33323;52.124;6.018;2024-02-28T07:27:28;44.75;;;22.60;;
47599;SDS011;33323;52.124;6.018;2024-02-28T07:29:56;46.65;;;23.30;;
47599;SDS011;33323;52.124;6.018;2024-02-28T07:32:24;41.25;;;20.08;;
47599;SDS011;33323;52.124;6.018;2024-02-28T07:34:52;48.15;;;22.67;;
47599;SDS011;33323;52.124;6.018;2024-02-28T07:37:20;44.75;;;23.08;;
47599;SDS011;33323;52.124;6.018;2024-02-28T07:39:48;38.78;;;22.45;;
47599;SDS011;33323;52.124;6.018;2024-02-28T07:42:15;44.63;;;23.98;;
47599;SDS011;33323;52.124;6.018;2024-02-28T07:44:44;44.53;;;24.17;;
47599;SDS011;33323;52.124;6.018;2024-02-28T07:47:11;39.03;;;21.63;;
47599;SDS011;33323;52.124;6.018;2024-02-28T07:49:40;47.53;;;23.58;;
47599;SDS011;33323;52.124;6.018;2024-02-28T07:52:10;41.33;;;23.17;;
47599;SDS011;33323;52.124;6.018;2024-02-28T07:54:38;44.47;;;22.92;;
47599;SDS011;33323;52.124;6.018;2024-02-28T07:57:10;44.92;;;25.65;;
47599;SDS011;33323;52.124;6.018;2024-02-28T07:59:42;45.50;;;24.30;;
47599;SDS011;33323;52.124;6.018;2024-02-28T08:02:10;45.72;;;24.30;;
47599;SDS011;33323;52.124;6.018;2024-02-28T08:04:41;47.25;;;25.33;;
47599;SDS011;33323;52.124;6.018;2024-02-28T08:07:09;45.17;;;24.35;;
47599;SDS011;33323;52.124;6.018;2024-02-28T08:09:37;48.63;;;25.75;;
47599;SDS011;33323;52.124;6.018;2024-02-28T08:12:04;51.75;;;25.27;;
47599;SDS011;33323;52.124;6.018;2024-02-28T08:14:32;42.13;;;24.85;;
47599;SDS011;33323;52.124;6.018;2024-02-28T08:16:59;45.38;;;24.85;;
47599;SDS011;33323;52.124;6.018;2024-02-28T08:19:27;50.83;;;24.55;;
47599;SDS011;33323;52.124;6.018;2024-02-28T08:21:54;46.25;;;25.77;;
47599;SDS011;33323;52.124;6.018;2024-02-28T08:24:22;51.42;;;26.27;;
47599;SDS011;33323;52.124;6.018;2024-02-28T08:26:49;54.90;;;28.85;;
47599;SDS011;33323;52.124;6.018;2024-02-28T08:29:17;55.85;;;29.33;;
47599;SDS011;33323;52.124;6.018;2024-02-28T08:31:44;55.00;;;30.65;;
47599;SDS011;33323;52.124;6.018;2024-02-28T08:34:13;49.90;;;28.80;;
47599;SDS011;33323;52.124;6.018;2024-02-28T08:36:41;54.83;;;29.85;;
47599;SDS011;33323;52.124;6.018;2024-02-28T08:39:08;52.20;;;29.27;;
47599;SDS011;33323;52.124;6.018;2024-02-28T08:41:36;49.15;;;27.23;;
47599;SDS011;33323;52.124;6.018;2024-02-28T08:44:03;56.45;;;30.08;;
47599;SDS011;33323;52.124;6.018;2024-02-28T08:46:31;56.95;;;29.38;;
47599;SDS011;33323;52.124;6.018;2024-02-28T08:48:59;52.65;;;28.45;;
47599;SDS011;33323;52.124;6.018;2024-02-28T08:51:26;51.80;;;29.15;;
47599;SDS011;33323;52.124;6.018;2024-02-28T08:53:54;52.85;;;27.75;;
47599;SDS011;33323;52.124;6.018;2024-02-28T08:56:22;48.80;;;28.23;;
47599;SDS011;33323;52.124;6.018;2024-02-28T08:58:50;52.92;;;28.63;;
47599;SDS011;33323;52.124;6.018;2024-02-28T09:01:18;49.58;;;27.75;;
47599;SDS011;33323;52.124;6.018;2024-02-28T09:03:47;52.72;;;29.10;;
47599;SDS011;33323;52.124;6.018;2024-02-28T09:06:15;57.47;;;32.90;;
47599;SDS011;33323;52.124;6.018;2024-02-28T09:08:42;52.35;;;29.90;;
47599;SDS011;33323;52.124;6.018;2024-02-28T09:11:10;53.30;;;28.40;;
47599;SDS011;33323;52.124;6.018;2024-02-28T09:13:37;61.75;;;30.88;;
47599;SDS011;33323;52.124;6.018;2024-02-28T09:16:05;58.72;;;30.98;;
47599;SDS011;33323;52.124;6.018;2024-02-28T09:18:33;48.33;;;27.58;;
47599;SDS011;33323;52.124;6.018;2024-02-28T09:21:01;62.97;;;32.03;;
47599;SDS011;33323;52.124;6.018;2024-02-28T09:23:28;55.75;;;30.35;;
47599;SDS011;33323;52.124;6.018;2024-02-28T09:25:56;53.47;;;31.33;;
47599;SDS011;33323;52.124;6.018;2024-02-28T09:28:24;56.65;;;30.33;;
47599;SDS011;33323;52.124;6.018;2024-02-28T09:30:52;52.85;;;28.30;;
47599;SDS011;33323;52.124;6.018;2024-02-28T09:33:20;58.65;;;31.23;;
47599;SDS011;33323;52.124;6.018;2024-02-28T09:35:48;60.70;;;31.90;;
47599;SDS011;33323;52.124;6.018;2024-02-28T09:38:16;58.03;;;29.98;;
47599;SDS011;33323;52.124;6.018;2024-02-28T09:40:46;64.30;;;31.27;;
47599;SDS011;33323;52.124;6.018;2024-02-28T09:43:35;53.78;;;29.23;;
47599;SDS011;33323;52.124;6.018;2024-02-28T09:46:08;58.00;;;29.83;;
47599;SDS011;33323;52.124;6.018;2024-02-28T09:48:40;61.58;;;29.95;;
47599;SDS011;33323;52.124;6.018;2024-02-28T09:51:08;57.75;;;31.23;;
47599;SDS011;33323;52.124;6.018;2024-02-28T09:53:39;58.63;;;31.27;;
47599;SDS011;33323;52.124;6.018;2024-02-28T09:56:07;63.50;;;30.30;;
47599;SDS011;33323;52.124;6.018;2024-02-28T09:58:35;60.10;;;32.42;;
47599;SDS011;33323;52.124;6.018;2024-02-28T10:01:04;66.88;;;32.78;;
47599;SDS011;33323;52.124;6.018;2024-02-28T10:03:36;66.68;;;32.50;;
47599;SDS011;33323;52.124;6.018;2024-02-28T10:06:06;60.10;;;30.95;;
47599;SDS011;33323;52.124;6.018;2024-02-28T10:08:37;60.85;;;31.52;;
47599;SDS011;33323;52.124;6.018;2024-02-28T10:11:04;60.53;;;30.50;;
47599;SDS011;33323;52.124;6.018;2024-02-28T10:13:33;66.70;;;32.83;;
47599;SDS011;33323;52.124;6.018;2024-02-28T10:16:00;67.22;;;33.05;;
47599;SDS011;33323;52.124;6.018;2024-02-28T10:18:30;65.82;;;33.42;;
47599;SDS011;33323;52.124;6.018;2024-02-28T10:20:57;65.07;;;32.47;;
47599;SDS011;33323;52.124;6.018;2024-02-28T10:23:25;59.17;;;32.92;;
47599;SDS011;33323;52.124;6.018;2024-02-28T10:25:53;62.28;;;31.17;;
47599;SDS011;33323;52.124;6.018;2024-02-28T10:28:23;67.85;;;35.22;;
47599;SDS011;33323;52.124;6.018;2024-02-28T10:30:51;68.68;;;33.78;;
47599;SDS011;33323;52.124;6.018;2024-02-28T10:33:20;68.90;;;37.42;;
47599;SDS011;33323;52.124;6.018;2024-02-28T10:35:50;67.75;;;35.80;;
47599;SDS011;33323;52.124;6.018;2024-02-28T10:38:21;68.35;;;33.28;;
47599;SDS011;33323;52.124;6.018;2024-02-28T10:40:48;72.97;;;35.90;;
47599;SDS011;33323;52.124;6.018;2024-02-28T10:43:17;66.55;;;33.80;;
47599;SDS011;33323;52.124;6.018;2024-02-28T10:45:46;64.95;;;33.63;;
47599;SDS011;33323;52.124;6.018;2024-02-28T10:48:33;65.32;;;33.58;;
47599;SDS011;33323;52.124;6.018;2024-02-28T10:51:02;66.63;;;33.28;;
47599;SDS011;33323;52.124;6.018;2024-02-28T10:53:37;56.97;;;31.25;;
47599;SDS011;33323;52.124;6.018;2024-02-28T10:56:12;67.65;;;33.28;;
47599;SDS011;33323;52.124;6.018;2024-02-28T10:58:51;72.60;;;35.20;;
47599;SDS011;33323;52.124;6.018;2024-02-28T11:01:19;61.22;;;30.73;;
47599;SDS011;33323;52.124;6.018;2024-02-28T11:03:49;56.90;;;30.60;;
47599;SDS011;33323;52.124;6.018;2024-02-28T11:06:19;62.25;;;31.40;;
47599;SDS011;33323;52.124;6.018;2024-02-28T11:08:48;61.50;;;31.02;;
47599;SDS011;33323;52.124;6.018;2024-02-28T11:11:21;64.05;;;29.98;;
47599;SDS011;33323;52.124;6.018;2024-02-28T11:13:56;59.90;;;31.17;;
47599;SDS011;33323;52.124;6.018;2024-02-28T11:16:30;53.95;;;29.20;;
47599;SDS011;33323;52.124;6.018;2024-02-28T11:19:03;56.83;;;29.40;;
47599;SDS011;33323;52.124;6.018;2024-02-28T11:21:33;61.13;;;29.17;;
47599;SDS011;33323;52.124;6.018;2024-02-28T11:24:02;54.28;;;27.83;;
47599;SDS011;33323;52.124;6.018;2024-02-28T11:26:31;47.88;;;26.27;;
47599;SDS011;33323;52.124;6.018;2024-02-28T11:28:59;46.05;;;27.05;;
47599;SDS011;33323;52.124;6.018;2024-02-28T11:31:26;51.42;;;25.33;;
47599;SDS011;33323;52.124;6.018;2024-02-28T11:33:54;53.40;;;26.45;;
47599;SDS011;33323;52.124;6.018;2024-02-28T11:36:21;44.38;;;24.90;;
47599;SDS011;33323;52.124;6.018;2024-02-28T11:38:49;45.50;;;24.33;;
47599;SDS011;33323;52.124;6.018;2024-02-28T11:41:25;42.58;;;23.42;;
47599;SDS011;33323;52.124;6.018;2024-02-28T11:43:56;46.95;;;25.40;;
47599;SDS011;33323;52.124;6.018;2024-02-28T11:46:23;63.20;;;28.70;;
47599;SDS011;33323;52.124;6.018;2024-02-28T11:48:52;49.60;;;26.55;;
47599;SDS011;33323;52.124;6.018;2024-02-28T11:51:23;47.58;;;25.40;;
47599;SDS011;33323;52.124;6.018;2024-02-28T11:53:51;44.20;;;23.67;;
47599;SDS011;33323;52.124;6.018;2024-02-28T11:56:19;44.72;;;25.35;;
47599;SDS011;33323;52.124;6.018;2024-02-28T11:58:51;42.45;;;22.88;;
47599;SDS011;33323;52.124;6.018;2024-02-28T12:01:36;41.75;;;23.05;;
47599;SDS011;33323;52.124;6.018;2024-02-28T12:04:06;40.80;;;22.30;;
47599;SDS011;33323;52.124;6.018;2024-02-28T12:06:34;36.88;;;23.27;;
47599;SDS011;33323;52.124;6.018;2024-02-28T12:09:12;41.65;;;22.60;;
47599;SDS011;33323;52.124;6.018;2024-02-28T12:12:00;41.35;;;23.10;;
47599;SDS011;33323;52.124;6.018;2024-02-28T12:14:29;43.97;;;24.08;;
47599;SDS011;33323;52.124;6.018;2024-02-28T12:17:03;41.63;;;22.15;;
47599;SDS011;33323;52.124;6.018;2024-02-28T12:19:31;44.53;;;23.77;;
47599;SDS011;33323;52.124;6.018;2024-02-28T12:22:01;37.58;;;21.70;;
47599;SDS011;33323;52.124;6.018;2024-02-28T12:24:34;47.47;;;24.92;;
47599;SDS011;33323;52.124;6.018;2024-02-28T12:27:01;40.60;;;23.23;;
47599;SDS011;33323;52.124;6.018;2024-02-28T12:29:30;44.00;;;24.08;;
47599;SDS011;33323;52.124;6.018;2024-02-28T12:31:58;42.17;;;24.10;;
47599;SDS011;33323;52.124;6.018;2024-02-28T12:34:25;45.85;;;24.83;;
47599;SDS011;33323;52.124;6.018;2024-02-28T12:36:53;50.72;;;25.85;;
47599;SDS011;33323;52.124;6.018;2024-02-28T12:39:20;49.15;;;27.73;;
47599;SDS011;33323;52.124;6.018;2024-02-28T12:41:48;46.45;;;25.23;;
47599;SDS011;33323;52.124;6.018;2024-02-28T12:44:18;48.45;;;26.15;;
47599;SDS011;33323;52.124;6.018;2024-02-28T12:46:45;47.78;;;25.98;;
47599;SDS011;33323;52.124;6.018;2024-02-28T12:49:12;47.35;;;25.05;;
47599;SDS011;33323;52.124;6.018;2024-02-28T12:51:40;44.50;;;26.83;;
47599;SDS011;33323;52.124;6.018;2024-02-28T12:54:11;48.30;;;24.15;;
47599;SDS011;33323;52.124;6.018;2024-02-28T12:56:42;46.03;;;23.88;;
47599;SDS011;33323;52.124;6.018;2024-02-28T12:59:10;40.85;;;21.95;;
47599;SDS011;33323;52.124;6.018;2024-02-28T13:01:40;40.83;;;22.25;;
47599;SDS011;33323;52.124;6.018;2024-02-28T13:04:07;39.47;;;23.13;;
47599;SDS011;33323;52.124;6.018;2024-02-28T13:06:35;42.88;;;23.75;;
47599;SDS011;33323;52.124;6.018;2024-02-28T13:09:03;45.38;;;23.83;;
47599;SDS011;33323;52.124;6.018;2024-02-28T13:11:32;44.33;;;23.17;;
47599;SDS011;33323;52.124;6.018;2024-02-28T13:14:00;50.22;;;25.05;;
47599;SDS011;33323;52.124;6.018;2024-02-28T13:16:27;43.17;;;26.30;;
47599;SDS011;33323;52.124;6.018;2024-02-28T13:18:54;45.20;;;23.90;;
47599;SDS011;33323;52.124;6.018;2024-02-28T13:21:22;42.83;;;24.08;;
47599;SDS011;33323;52.124;6.018;2024-02-28T13:23:49;52.25;;;24.10;;
47599;SDS011;33323;52.124;6.018;2024-02-28T13:26:16;39.67;;;24.35;;
47599;SDS011;33323;52.124;6.018;2024-02-28T13:28:45;41.58;;;22.67;;
47599;SDS011;33323;52.124;6.018;2024-02-28T13:31:17;48.85;;;25.85;;
47599;SDS011;33323;52.124;6.018;2024-02-28T13:33:44;40.92;;;24.02;;
47599;SDS011;33323;52.124;6.018;2024-02-28T13:36:15;46.22;;;23.92;;
47599;SDS011;33323;52.124;6.018;2024-02-28T13:38:42;43.17;;;26.23;;
47599;SDS011;33323;52.124;6.018;2024-02-28T13:41:10;45.72;;;24.88;;
47599;SDS011;33323;52.124;6.018;2024-02-28T13:43:37;44.33;;;26.58;;
47599;SDS011;33323;52.124;6.018;2024-02-28T13:46:05;51.00;;;27.35;;
47599;SDS011;33323;52.124;6.018;2024-02-28T13:48:33;45.78;;;25.77;;
47599;SDS011;33323;52.124;6.018;2024-02-28T13:51:01;41.65;;;25.85;;
47599;SDS011;33323;52.124;6.018;2024-02-28T13:53:29;47.20;;;26.35;;
47599;SDS011;33323;52.124;6.018;2024-02-28T13:55:56;47.60;;;25.33;;
47599;SDS011;33323;52.124;6.018;2024-02-28T13:58:24;44.20;;;25.92;;
47599;SDS011;33323;52.124;6.018;2024-02-28T14:01:03;46.65;;;28.02;;
47599;SDS011;33323;52.124;6.018;2024-02-28T14:03:33;60.72;;;27.33;;
47599;SDS011;33323;52.124;6.018;2024-02-28T14:06:01;44.38;;;25.30;;
47599;SDS011;33323;52.124;6.018;2024-02-28T14:08:28;43.67;;;25.73;;
47599;SDS011;33323;52.124;6.018;2024-02-28T14:11:01;45.25;;;25.10;;
47599;SDS011;33323;52.124;6.018;2024-02-28T14:13:29;44.28;;;27.15;;
47599;SDS011;33323;52.124;6.018;2024-02-28T14:15:57;41.95;;;24.83;;
47599;SDS011;33323;52.124;6.018;2024-02-28T14:18:24;48.42;;;25.25;;
47599;SDS011;33323;52.124;6.018;2024-02-28T14:20:52;47.08;;;24.90;;
47599;SDS011;33323;52.124;6.018;2024-02-28T14:23:20;39.45;;;24.20;;
47599;SDS011;33323;52.124;6.018;2024-02-28T14:25:47;44.22;;;24.88;;